Time;durP1;ratioP1;P1;durP2;ratioP2;P2;SDS_P1;SDS_P2;PMS_P1;PMS_P2;Temp;Humidity;BMP_temperature;BMP_pressure;BME280_temperature;BME280_humidity;BME280_pressure;Samples;Min_cycle;Max_cycle;Signal;HPM_P1;HPM_P2
2021/05/05 00:00:06;;;;;;;5.12;1.82;;;;;;;16.91;55.64;101612.36;1770434;80;21151;-48
2021/05/05 00:02:36;;;;;;;5.33;2.15;;;;;;;16.90;55.66;101609.31;1719750;83;21493;-47
2021/05/05 00:05:06;;;;;;;3.25;1.70;;;;;;;16.90;55.79;101609.31;1723586;83;21256;-48
2021/05/05 00:07:34;;;;;;;7.15;2.83;;;;;;;16.92;55.93;101608.80;1723447;83;21155;-50
2021/05/05 00:10:04;;;;;;;4.45;2.02;;;;;;;16.92;55.98;101608.80;1716130;83;21233;-46
2021/05/05 00:12:32;;;;;;;2.62;2.00;;;;;;;16.93;55.96;101615.80;1716181;83;21200;-46
2021/05/05 00:15:00;;;;;;;3.55;1.70;;;;;;;16.92;55.96;101598.28;1716112;83;21175;-46
2021/05/05 00:17:28;;;;;;;3.00;1.92;;;;;;;16.93;55.92;101597.39;1716265;83;21151;-47
2021/05/05 00:19:57;;;;;;;3.12;1.70;;;;;;;16.93;55.86;101601.34;1715894;83;21175;-47
2021/05/05 00:22:24;;;;;;;2.67;2.05;;;;;;;16.93;55.87;101602.65;1715620;83;21679;-46
2021/05/05 00:24:52;;;;;;;2.10;1.90;;;;;;;16.94;55.89;101597.78;1715250;83;21124;-47
2021/05/05 00:27:20;;;;;;;3.25;1.92;;;;;;;16.95;55.85;101596.88;1715551;83;21132;-48
2021/05/05 00:29:49;;;;;;;3.65;1.90;;;;;;;16.96;55.93;101595.98;1715610;83;21276;-50
2021/05/05 00:32:17;;;;;;;5.03;1.75;;;;;;;16.95;56.00;101596.88;1715691;83;21654;-51
2021/05/05 00:34:45;;;;;;;2.72;1.72;;;;;;;16.94;56.10;101598.64;1715503;83;21203;-49
2021/05/05 00:37:13;;;;;;;8.15;1.90;;;;;;;16.94;56.22;101597.78;1715773;83;21155;-52
2021/05/05 00:39:42;;;;;;;4.62;2.25;;;;;;;16.94;56.30;101597.78;1715894;83;21552;-47
2021/05/05 00:42:10;;;;;;;3.00;2.47;;;;;;;16.94;56.41;101597.78;1716090;83;21629;-47
2021/05/05 00:44:39;;;;;;;4.35;1.70;;;;;;;16.96;56.47;101595.98;1715591;83;21596;-52
2021/05/05 00:47:08;;;;;;;3.40;1.90;;;;;;;16.95;56.46;101599.06;1715607;83;21131;-50
2021/05/05 00:49:36;;;;;;;4.00;1.95;;;;;;;16.94;56.50;101592.08;1715697;83;21584;-50
2021/05/05 00:52:05;;;;;;;3.77;2.10;;;;;;;16.93;56.68;101592.13;1715723;83;21778;-48
2021/05/05 00:54:33;;;;;;;3.72;2.15;;;;;;;16.93;56.91;101594.77;1715683;83;21168;-46
2021/05/05 00:57:01;;;;;;;5.78;2.65;;;;;;;16.93;57.05;101588.19;1715758;83;21168;-51
2021/05/05 00:59:29;;;;;;;4.92;2.40;;;;;;;16.93;57.12;101582.48;1692017;83;21160;-50
2021/05/05 01:01:57;;;;;;;5.35;2.20;;;;;;;16.94;57.19;101584.63;1715500;83;21286;-47
2021/05/05 01:04:26;;;;;;;3.80;2.10;;;;;;;16.93;57.32;101581.63;1715719;83;21653;-48
2021/05/05 01:06:54;;;;;;;6.45;2.25;;;;;;;16.93;57.52;101576.36;1761401;81;21143;-50
2021/05/05 01:09:22;;;;;;;3.42;2.20;;;;;;;16.93;57.63;101573.73;1753503;81;21282;-51
2021/05/05 01:11:50;;;;;;;4.10;2.20;;;;;;;16.95;57.76;101585.05;1759540;81;21195;-50
2021/05/05 01:14:18;;;;;;;5.55;2.30;;;;;;;16.96;57.85;101581.53;1751225;81;21112;-46
2021/05/05 01:16:46;;;;;;;8.20;2.75;;;;;;;16.98;57.86;101584.96;1751985;81;21293;-47
2021/05/05 01:19:14;;;;;;;3.27;2.05;;;;;;;16.97;57.88;101576.20;1764870;81;21568;-52
2021/05/05 01:21:42;;;;;;;4.45;2.42;;;;;;;16.97;57.92;101577.97;1753338;81;21121;-51
2021/05/05 01:24:12;;;;;;;4.70;2.47;;;;;;;16.98;58.06;101581.02;1760498;81;21425;-51
2021/05/05 01:26:40;;;;;;;4.58;2.50;;;;;;;17.00;58.13;101580.51;1758433;81;21200;-47
2021/05/05 01:29:09;;;;;;;4.20;1.82;;;;;;;17.02;58.26;101582.63;1756110;81;21148;-47
2021/05/05 01:31:38;;;;;;;3.22;2.10;;;;;;;17.02;58.35;101585.25;1762161;81;21108;-51
2021/05/05 01:34:06;;;;;;;8.68;2.30;;;;;;;17.04;58.39;101577.69;1760650;81;21549;-47
2021/05/05 01:36:36;;;;;;;3.65;2.00;;;;;;;17.04;58.41;101571.59;1764652;81;21168;-48
2021/05/05 01:39:05;;;;;;;4.05;1.85;;;;;;;17.05;58.50;101581.19;1745298;81;21590;-46
2021/05/05 01:41:34;;;;;;;3.75;1.95;;;;;;;17.03;58.63;101572.49;1759854;81;21164;-48
2021/05/05 01:44:03;;;;;;;4.87;2.27;;;;;;;17.03;58.76;101572.49;1764664;81;21132;-51
2021/05/05 01:46:31;;;;;;;4.80;2.10;;;;;;;17.05;58.93;101571.98;1759341;81;21109;-51
2021/05/05 01:48:59;;;;;;;6.15;2.87;;;;;;;17.06;59.02;101577.17;1754760;81;21168;-45
2021/05/05 01:51:27;;;;;;;6.53;2.62;;;;;;;17.10;59.01;101571.38;1762126;81;21140;-46
2021/05/05 01:53:57;;;;;;;8.03;2.40;;;;;;;17.12;59.01;101576.58;1755285;81;21165;-46
2021/05/05 01:56:25;;;;;;;4.58;2.33;;;;;;;17.12;59.01;101573.50;1758797;81;21145;-47
2021/05/05 01:58:55;;;;;;;4.83;2.62;;;;;;;17.11;59.10;101567.81;1757851;81;21200;-44
2021/05/05 02:01:23;;;;;;;4.80;2.77;;;;;;;17.12;59.15;101576.58;1758973;81;21156;-48
2021/05/05 02:03:51;;;;;;;5.65;2.35;;;;;;;17.12;59.17;101574.81;1757058;81;21113;-45
2021/05/05 02:06:30;;;;;;;3.60;2.55;;;;;;;17.15;59.17;101569.42;1802044;79;22981;-49
2021/05/05 02:09:17;;;;;;;4.15;2.70;;;;;;;17.09;59.19;101568.33;1783969;80;21680;-49
2021/05/05 02:11:45;;;;;;;4.37;2.35;;;;;;;17.06;59.25;101569.29;1744824;81;21162;-47
2021/05/05 02:14:13;;;;;;;4.47;2.35;;;;;;;17.05;59.36;101574.61;1707991;83;21564;-49
2021/05/05 02:16:42;;;;;;;6.35;2.45;;;;;;;17.05;59.46;101581.19;1714920;83;21157;-48
2021/05/05 02:19:14;;;;;;;3.47;2.75;;;;;;;17.06;59.53;101582.92;1743176;81;21152;-47
2021/05/05 02:21:40;;;;;;;5.22;2.50;;;;;;;17.07;59.56;101585.94;1713004;83;21144;-47
2021/05/05 02:24:10;;;;;;;6.85;3.00;;;;;;;17.08;59.51;101581.92;1719868;82;21148;-45
2021/05/05 02:26:37;;;;;;;5.35;2.10;;;;;;;17.10;59.51;101581.89;1713848;83;21305;-46
2021/05/05 02:29:06;;;;;;;5.15;2.17;;;;;;;17.10;59.47;101584.53;1745506;81;21572;-46
2021/05/05 02:31:49;;;;;;;3.52;2.05;;;;;;;17.16;59.45;101584.30;1813744;79;22982;-52
2021/05/05 02:34:18;;;;;;;4.97;2.35;;;;;;;17.13;59.46;101576.51;1790159;78;21568;-51
2021/05/05 02:36:47;;;;;;;7.65;2.52;;;;;;;17.15;59.42;101585.20;1749200;81;21279;-52
2021/05/05 02:39:19;;;;;;;4.53;2.47;;;;;;;17.13;59.42;101579.14;1765714;81;21623;-47
2021/05/05 02:41:47;;;;;;;5.30;3.05;;;;;;;17.13;59.48;101578.27;1770465;81;21132;-48
2021/05/05 02:44:16;;;;;;;3.58;2.40;;;;;;;17.12;59.50;101579.20;1763030;81;21192;-50
2021/05/05 02:46:44;;;;;;;4.92;2.80;;;;;;;17.12;59.55;101585.33;1776337;80;21147;-49
2021/05/05 02:49:13;;;;;;;5.35;2.70;;;;;;;17.13;59.63;101588.80;1742131;81;21124;-51
2021/05/05 02:51:42;;;;;;;4.45;2.42;;;;;;;17.12;59.71;101587.95;1748202;80;21140;-52
2021/05/05 02:54:10;;;;;;;6.00;2.83;;;;;;;17.10;59.77;101584.05;1756228;81;21208;-48
2021/05/05 02:56:38;;;;;;;4.15;2.30;;;;;;;17.10;59.79;101589.78;1762043;81;21357;-52
2021/05/05 02:59:07;;;;;;;7.53;2.30;;;;;;;17.09;59.84;101593.31;1768262;81;21195;-47
2021/05/05 03:01:35;;;;;;;4.17;2.25;;;;;;;17.08;59.96;101591.61;1762394;81;21238;-49
2021/05/05 03:04:04;;;;;;;4.95;2.27;;;;;;;17.09;60.04;101598.57;1775000;80;21687;-50
2021/05/05 03:06:32;;;;;;;8.13;3.22;;;;;;;17.12;60.02;101598.48;1774577;80;21136;-48
2021/05/05 03:09:05;;;;;;;4.78;2.83;;;;;;;17.14;60.00;101594.02;1783676;80;21295;-52
2021/05/05 03:11:33;;;;;;;5.28;2.35;;;;;;;17.17;59.89;101599.16;1762880;81;21331;-47
2021/05/05 03:14:01;;;;;;;8.08;2.87;;;;;;;17.21;59.87;101597.30;1780104;80;21171;-50
2021/05/05 03:16:29;;;;;;;7.45;2.67;;;;;;;17.27;59.89;101595.28;1776919;80;21160;-48
2021/05/05 03:18:58;;;;;;;7.17;2.45;;;;;;;17.37;59.79;101591.40;1756502;81;21318;-52
2021/05/05 03:21:26;;;;;;;3.70;2.27;;;;;;;17.51;59.31;101590.50;1776344;80;22379;-47
2021/05/05 03:23:55;;;;;;;3.87;2.47;;;;;;;17.65;58.78;101588.20;1769569;81;21160;-49
2021/05/05 03:26:23;;;;;;;6.30;2.70;;;;;;;17.73;58.37;101588.77;1776114;80;21188;-49
2021/05/05 03:28:52;;;;;;;2.70;2.10;;;;;;;17.78;58.00;101589.44;1769711;81;21163;-47
2021/05/05 03:31:20;;;;;;;2.87;1.90;;;;;;;17.74;57.77;101595.73;1754047;81;21160;-48
2021/05/05 03:33:47;;;;;;;5.25;1.87;;;;;;;17.75;57.56;101589.57;1747229;82;21574;-47
2021/05/05 03:36:16;;;;;;;4.10;2.98;;;;;;;17.76;57.45;101592.58;1721353;81;21635;-47
2021/05/05 03:38:44;;;;;;;3.58;1.95;;;;;;;17.71;57.43;101581.39;1744336;82;21295;-50
2021/05/05 03:41:13;;;;;;;5.62;2.22;;;;;;;17.68;57.46;101590.70;1718910;83;21151;-50
2021/05/05 03:43:43;;;;;;;3.15;1.90;;;;;;;17.65;57.45;101586.89;1742566;82;22211;-47
2021/05/05 03:46:11;;;;;;;2.35;1.95;;;;;;;17.64;57.37;101585.16;1721525;81;21174;-47
2021/05/05 03:48:39;;;;;;;4.37;2.00;;;;;;;17.63;57.39;101578.19;1741793;82;21177;-47
2021/05/05 03:51:07;;;;;;;5.37;2.02;;;;;;;17.61;57.41;101581.79;1733280;83;21159;-50
2021/05/05 03:53:36;;;;;;;4.55;1.80;;;;;;;17.59;57.35;101578.36;1742788;82;21315;-51
2021/05/05 03:56:04;;;;;;;5.00;2.30;;;;;;;17.58;57.22;101577.49;1721377;81;21170;-50
2021/05/05 03:58:32;;;;;;;5.72;2.55;;;;;;;17.58;57.21;101577.49;1740336;82;21302;-50
2021/05/05 04:01:00;;;;;;;4.90;1.72;;;;;;;17.59;56.97;101579.23;1741752;82;21182;-48
2021/05/05 04:03:28;;;;;;;4.25;2.05;;;;;;;17.58;56.68;101576.17;1745099;82;21161;-46
2021/05/05 04:05:56;;;;;;;4.83;2.17;;;;;;;17.57;56.55;101577.11;1733316;83;21159;-49
2021/05/05 04:08:24;;;;;;;6.90;2.05;;;;;;;17.56;56.46;101572.75;1736156;82;21581;-50
2021/05/05 04:10:52;;;;;;;8.25;2.20;;;;;;;17.56;56.26;101566.17;1740876;82;21185;-48
2021/05/05 04:13:20;;;;;;;7.78;2.27;;;;;;;17.56;56.26;101568.80;1728916;83;21119;-47
2021/05/05 04:16:06;;;;;;;4.85;2.20;;;;;;;17.57;56.20;101567.03;1742595;82;21113;-51
2021/05/05 04:18:53;;;;;;;3.22;1.90;;;;;;;17.56;56.22;101570.11;1720179;81;21143;-46
2021/05/05 04:21:40;;;;;;;4.83;1.72;;;;;;;17.57;56.17;101567.90;1743408;82;21700;-47
2021/05/05 04:24:25;;;;;;;3.05;1.75;;;;;;;17.57;56.24;101573.16;1720094;81;21179;-47
2021/05/05 04:26:54;;;;;;;2.72;1.60;;;;;;;17.56;56.20;101563.53;1742491;82;21624;-48
2021/05/05 04:29:23;;;;;;;6.10;1.70;;;;;;;17.57;56.28;101562.64;1720049;81;21193;-52
2021/05/05 04:31:52;;;;;;;6.37;2.12;;;;;;;17.60;56.30;101565.58;1745929;81;21132;-47
2021/05/05 04:34:20;;;;;;;4.08;2.50;;;;;;;17.61;56.29;101561.60;1720118;81;21182;-50
2021/05/05 04:36:48;;;;;;;4.90;2.17;;;;;;;17.65;56.24;101560.56;1732709;82;21136;-47
2021/05/05 04:39:16;;;;;;;4.15;1.70;;;;;;;17.69;56.26;101562.16;1733271;83;21148;-48
2021/05/05 04:41:44;;;;;;;7.95;1.90;;;;;;;17.70;56.34;101563.86;1742186;82;21310;-51
2021/05/05 04:44:14;;;;;;;6.30;2.10;;;;;;;17.73;56.31;101566.39;1739261;82;21153;-48
2021/05/05 04:46:42;;;;;;;5.15;2.22;;;;;;;17.72;56.52;101569.92;1720119;81;21206;-47
2021/05/05 04:49:10;;;;;;;7.40;1.82;;;;;;;17.75;56.68;101578.17;1739886;82;21195;-51
2021/05/05 04:51:39;;;;;;;3.87;2.17;;;;;;;17.77;56.87;101577.66;1720215;81;21139;-48
2021/05/05 04:54:08;;;;;;;6.83;2.77;;;;;;;17.81;56.85;101574.85;1731554;82;21125;-51
2021/05/05 04:56:36;;;;;;;6.47;1.92;;;;;;;17.85;56.81;101574.27;1741816;81;21208;-47
2021/05/05 04:59:04;;;;;;;6.80;2.15;;;;;;;17.89;56.81;101578.05;1741676;82;21692;-50
2021/05/05 05:01:32;;;;;;;5.33;2.25;;;;;;;17.94;56.81;101573.06;1720026;81;21161;-52
2021/05/05 05:04:00;;;;;;;6.55;1.92;;;;;;;17.96;56.83;101575.17;1740595;82;21200;-51
2021/05/05 05:06:28;;;;;;;7.67;2.10;;;;;;;17.97;56.91;101571.63;1722268;83;21170;-50
2021/05/05 05:08:57;;;;;;;7.00;2.40;;;;;;;17.97;57.04;101576.91;1728215;82;21148;-46
2021/05/05 05:11:25;;;;;;;4.50;2.05;;;;;;;18.00;57.20;101580.71;1719975;81;21325;-50
2021/05/05 05:13:54;;;;;;;7.03;2.20;;;;;;;18.02;57.26;101576.24;1726735;83;21589;-47
2021/05/05 05:16:23;;;;;;;6.72;2.12;;;;;;;18.07;57.30;101575.16;1741901;82;21149;-50
2021/05/05 05:18:51;;;;;;;5.22;2.30;;;;;;;18.13;57.43;101572.73;1720337;81;21158;-50
2021/05/05 05:21:19;;;;;;;6.62;2.00;;;;;;;18.19;57.53;101569.86;1746067;82;21597;-48
2021/05/05 05:23:47;;;;;;;8.00;2.05;;;;;;;18.24;57.46;101567.88;1720151;81;21598;-50
2021/05/05 05:26:15;;;;;;;5.17;2.00;;;;;;;18.27;57.50;101571.27;1741263;82;21290;-49
2021/05/05 05:28:43;;;;;;;5.10;1.70;;;;;;;18.34;57.49;101567.93;1737500;82;21157;-46
2021/05/05 05:31:11;;;;;;;3.35;1.80;;;;;;;18.56;57.32;101571.42;1739309;80;21148;-47
2021/05/05 05:33:39;;;;;;;4.12;2.00;;;;;;;18.91;56.66;101564.20;1737762;81;21298;-47
2021/05/05 05:36:08;;;;;;;3.90;2.25;;;;;;;19.41;55.60;101565.46;1753687;80;21111;-51
2021/05/05 05:38:36;;;;;;;4.78;2.45;;;;;;;19.97;54.31;101565.96;1749818;80;21164;-52
2021/05/05 05:41:05;;;;;;;4.78;1.57;;;;;;;20.48;52.98;101564.77;1747117;82;21180;-51
2021/05/05 05:43:33;;;;;;;5.03;1.92;;;;;;;20.94;51.78;101557.98;1813857;78;21152;-49
2021/05/05 05:46:01;;;;;;;4.37;2.00;;;;;;;21.40;50.42;101555.98;1798429;79;21313;-50
2021/05/05 05:48:29;;;;;;;7.50;2.12;;;;;;;21.80;49.25;101565.27;1816012;78;21565;-49
2021/05/05 05:50:59;;;;;;;4.85;2.33;;;;;;;22.16;48.20;101557.92;1805611;79;21557;-48
2021/05/05 05:53:27;;;;;;;3.22;1.90;;;;;;;22.49;47.14;101559.09;1811371;79;21152;-50
2021/05/05 05:55:55;;;;;;;7.30;2.30;;;;;;;22.78;46.35;101560.06;1809751;79;21286;-50
2021/05/05 05:58:23;;;;;;;5.62;1.80;;;;;;;23.03;45.60;101557.19;1806997;79;21136;-50
2021/05/05 06:00:50;;;;;;;5.70;2.10;;;;;;;23.21;45.09;101553.86;1807688;79;21628;-47
2021/05/05 06:03:19;;;;;;;4.90;2.12;;;;;;;23.37;44.43;101555.98;1807466;79;21314;-51
2021/05/05 06:05:47;;;;;;;5.60;2.00;;;;;;;23.53;43.97;101555.42;1805699;79;21131;-52
2021/05/05 06:08:14;;;;;;;5.42;1.87;;;;;;;23.70;43.73;101555.19;1816685;78;21631;-50
2021/05/05 06:10:42;;;;;;;3.40;1.72;;;;;;;23.94;43.07;101561.63;1818826;79;21156;-51
2021/05/05 06:13:11;;;;;;;8.75;2.50;;;;;;;24.17;42.43;101557.00;1810745;79;21274;-46
2021/05/05 06:15:42;;;;;;;9.60;2.60;;;;;;;24.36;41.90;101553.16;1741683;82;21136;-45
2021/05/05 06:18:09;;;;;;;5.37;1.87;;;;;;;24.55;41.59;101550.95;1730568;82;21144;-49
2021/05/05 06:20:37;;;;;;;3.95;2.22;;;;;;;25.02;40.28;101544.12;1741980;81;21357;-49
2021/05/05 06:23:06;;;;;;;5.25;2.02;;;;;;;25.02;40.28;101544.12;1811194;79;21148;-45
2021/05/05 06:25:34;;;;;;;3.77;2.02;;;;;;;25.31;39.38;101535.42;1805838;79;21584;-48
2021/05/05 06:28:03;;;;;;;5.37;2.27;;;;;;;25.31;39.38;101535.42;1809592;79;21148;-50
2021/05/05 06:30:30;;;;;;;6.35;1.72;;;;;;;25.35;38.81;101539.57;1738513;82;21170;-45
2021/05/05 06:32:58;;;;;;;4.50;1.70;;;;;;;25.29;38.50;101550.66;1752523;82;21310;-48
2021/05/05 06:35:27;;;;;;;5.60;2.10;;;;;;;25.17;38.38;101551.53;1753084;82;21160;-45
2021/05/05 06:37:55;;;;;;;7.00;1.72;;;;;;;24.94;37.56;101552.27;1740730;81;21156;-48
2021/05/05 06:40:23;;;;;;;3.70;1.92;;;;;;;24.94;37.56;101552.27;1749656;82;21160;-46
2021/05/05 06:42:51;;;;;;;4.53;1.75;;;;;;;24.81;37.40;101553.58;1740619;81;21184;-45
2021/05/05 06:45:19;;;;;;;7.30;1.98;;;;;;;24.81;37.40;101553.58;1745770;81;21604;-49
2021/05/05 06:47:47;;;;;;;5.97;1.90;;;;;;;24.74;37.58;101562.09;1744452;82;21192;-45
2021/05/05 06:50:14;;;;;;;3.58;1.62;;;;;;;24.74;37.58;101562.09;1755383;82;21214;-48
2021/05/05 06:52:42;;;;;;;4.70;2.15;;;;;;;24.76;37.67;101558.85;1776877;80;21160;-46
2021/05/05 06:55:11;;;;;;;5.87;1.90;;;;;;;24.78;37.34;101559.13;1744413;82;21593;-48
2021/05/05 06:57:39;;;;;;;5.80;1.80;;;;;;;24.87;37.38;101557.66;1744336;81;21164;-48
2021/05/05 07:00:10;;;;;;;2.50;1.50;;;;;;;24.87;37.38;101557.66;1749808;82;21129;-48
2021/05/05 07:02:38;;;;;;;5.30;1.52;;;;;;;25.03;37.06;101554.30;1744458;82;21259;-50
2021/05/05 07:05:08;;;;;;;5.50;2.00;;;;;;;25.03;37.06;101554.30;1755413;82;21127;-47
2021/05/05 07:07:38;;;;;;;3.30;1.75;;;;;;;25.13;36.99;101554.03;1783735;80;21168;-49
2021/05/05 07:10:08;;;;;;;2.50;1.92;;;;;;;25.23;36.64;101550.23;1778441;80;21172;-50
2021/05/05 07:12:36;;;;;;;3.67;1.80;;;;;;;25.36;36.37;101546.63;1779708;80;21148;-46
2021/05/05 07:15:06;;;;;;;4.25;1.87;;;;;;;25.50;36.29;101557.18;1776821;80;21271;-49
2021/05/05 07:17:34;;;;;;;5.78;1.95;;;;;;;25.63;36.01;101556.69;1779513;80;21157;-49
2021/05/05 07:20:02;;;;;;;4.83;1.80;;;;;;;25.64;36.00;101557.04;1745952;82;21609;-49
2021/05/05 07:22:30;;;;;;;4.08;2.10;;;;;;;25.66;36.03;101558.25;1747058;81;21294;-51
2021/05/05 07:24:58;;;;;;;5.97;2.02;;;;;;;25.69;35.85;101556.24;1740224;82;21156;-52
2021/05/05 07:27:26;;;;;;;5.35;1.80;;;;;;;25.66;35.81;101555.12;1740657;81;21314;-47
2021/05/05 07:29:54;;;;;;;7.45;1.70;;;;;;;25.51;36.19;101556.20;1750467;82;21161;-50
2021/05/05 07:32:22;;;;;;;4.45;1.80;;;;;;;25.42;36.30;101551.55;1737493;81;21176;-47
2021/05/05 07:34:52;;;;;;;5.25;2.00;;;;;;;25.40;36.19;101549.91;1749410;82;21157;-49
2021/05/05 07:37:34;;;;;;;5.08;1.92;;;;;;;24.91;36.77;101541.84;1746371;82;21295;-47
2021/05/05 07:50:17;;;;;;;9.83;2.90;;;;;;;23.79;39.02;101554.63;1769510;79;23133;-48
2021/05/05 07:52:44;;;;;;;4.62;2.30;;;;;;;23.52;39.46;101555.03;1740434;82;21144;-51
2021/05/05 07:55:12;;;;;;;4.25;2.12;;;;;;;23.28;39.95;101564.03;1738490;81;21576;-45
2021/05/05 07:57:42;;;;;;;5.37;1.98;;;;;;;23.06;40.56;101571.58;1737639;82;21164;-49
2021/05/05 08:00:12;;;;;;;7.20;2.37;;;;;;;22.86;41.04;101573.26;1737251;82;21754;-50
2021/05/05 08:02:40;;;;;;;5.78;2.02;;;;;;;22.69;41.56;101573.89;1738534;82;21588;-48
2021/05/05 08:05:11;;;;;;;4.40;1.92;;;;;;;22.50;41.88;101565.63;1737886;81;21156;-47
2021/05/05 08:07:38;;;;;;;5.53;2.25;;;;;;;22.37;42.10;101562.00;1734993;82;21294;-52
2021/05/05 08:10:09;;;;;;;4.08;2.35;;;;;;;22.26;42.33;101557.77;1741116;82;21140;-45
2021/05/05 08:12:37;;;;;;;4.35;1.82;;;;;;;22.18;42.67;101564.45;1727873;82;21128;-47
2021/05/05 08:15:07;;;;;;;4.08;1.80;;;;;;;22.08;42.95;101568.57;1739287;82;21140;-48
2021/05/05 08:17:35;;;;;;;5.17;2.08;;;;;;;21.98;43.20;101561.63;1738820;82;21189;-50
2021/05/05 08:20:05;;;;;;;5.35;2.30;;;;;;;21.90;43.34;101562.52;1737383;82;21145;-49
2021/05/05 08:22:34;;;;;;;5.03;2.40;;;;;;;21.83;43.68;101562.00;1741912;82;21148;-45
2021/05/05 08:25:02;;;;;;;3.92;2.08;;;;;;;21.71;43.83;101559.14;1741063;82;21144;-47
2021/05/05 08:27:30;;;;;;;4.15;2.45;;;;;;;21.68;43.89;101551.34;1741128;82;21565;-48
2021/05/05 08:29:58;;;;;;;5.20;2.10;;;;;;;21.66;43.77;101553.23;1735773;82;21573;-48
2021/05/05 08:32:26;;;;;;;4.72;1.95;;;;;;;21.64;43.94;101552.45;1737845;82;21172;-48
2021/05/05 08:34:54;;;;;;;5.30;2.20;;;;;;;21.59;43.80;101554.52;1738553;81;21608;-46
2021/05/05 08:37:21;;;;;;;4.40;2.08;;;;;;;21.53;44.05;101546.91;1738077;82;21148;-46
2021/05/05 08:39:49;;;;;;;7.10;2.00;;;;;;;21.49;44.20;101554.17;1736018;82;21164;-49
2021/05/05 08:42:17;;;;;;;5.50;1.92;;;;;;;21.46;44.53;101542.88;1732171;82;21249;-46
2021/05/05 08:44:49;;;;;;;5.03;1.80;;;;;;;21.46;44.57;101545.52;1738568;82;21585;-45
2021/05/05 08:47:18;;;;;;;5.28;2.12;;;;;;;21.44;44.53;101542.97;1737182;82;21156;-51
2021/05/05 08:49:48;;;;;;;4.28;1.72;;;;;;;21.43;44.77;101540.41;1729847;82;21633;-49
2021/05/05 08:52:16;;;;;;;4.40;2.05;;;;;;;21.41;44.77;101551.55;1726000;82;21154;-46
2021/05/05 08:54:46;;;;;;;7.85;2.15;;;;;;;21.39;44.87;101541.52;1727109;82;21156;-50
2021/05/05 08:57:15;;;;;;;5.20;1.85;;;;;;;21.37;44.82;101538.09;1723483;82;21590;-48
2021/05/05 08:59:44;;;;;;;4.53;1.82;;;;;;;21.35;44.61;101537.32;1729266;82;21145;-48
2021/05/05 09:02:12;;;;;;;4.35;1.80;;;;;;;21.31;44.61;101537.94;1727208;82;21323;-46
2021/05/05 09:04:56;;;;;;;3.62;1.92;;;;;;;21.29;44.60;101531.03;1725051;82;21157;-51
2021/05/05 09:07:37;;;;;;;3.70;1.50;;;;;;;21.27;44.74;101538.20;1723430;82;21137;-50
2021/05/05 09:10:12;;;;;;;4.53;2.37;;;;;;;21.23;44.68;101530.02;1713019;82;21161;-46
2021/05/05 09:12:41;;;;;;;4.20;2.00;;;;;;;21.19;44.73;101528.47;1725208;82;21157;-50
2021/05/05 09:15:15;;;;;;;4.53;2.30;;;;;;;21.13;44.64;101526.14;1729311;82;21209;-50
2021/05/05 09:17:52;;;;;;;2.95;1.67;;;;;;;21.08;44.95;101530.84;1723801;82;21609;-50
2021/05/05 09:20:31;;;;;;;5.08;2.65;;;;;;;21.02;44.94;101530.22;1678371;85;21585;-49
2021/05/05 09:23:06;;;;;;;3.87;2.05;;;;;;;20.97;45.18;101534.02;1677746;85;21321;-49
2021/05/05 09:25:41;;;;;;;7.28;2.10;;;;;;;20.90;45.16;101536.13;1680454;85;21191;-48
2021/05/05 09:28:21;;;;;;;3.77;2.02;;;;;;;20.83;45.57;101534.75;1677538;85;21363;-51
2021/05/05 09:31:10;;;;;;;5.37;2.22;;;;;;;20.83;45.69;101525.49;1805664;79;23174;-47
2021/05/05 09:33:44;;;;;;;5.50;1.77;;;;;;;20.73;45.63;101526.88;1779277;80;21176;-49
2021/05/05 09:36:09;;;;;;;4.53;2.10;;;;;;;20.65;45.91;101527.73;1743206;81;21157;-48
2021/05/05 09:38:50;;;;;;;7.10;2.42;;;;;;;20.60;46.32;101534.20;1718369;83;21172;-46
2021/05/05 09:41:23;;;;;;;;;;;;;;;20.57;46.52;101538.31;1609595;87;21247;-50
2021/05/05 09:43:52;;;;;;;9.18;2.33;;;;;;;20.54;46.88;101531.87;1627409;86;20156;-48
2021/05/05 09:46:46;;;;;;;4.12;1.95;;;;;;;20.53;47.02;101532.33;1629873;86;21255;-47
2021/05/05 09:49:38;;;;;;;10.72;2.50;;;;;;;20.57;47.16;101532.56;1771614;79;23119;-49
2021/05/05 09:52:15;;;;;;;8.63;2.47;;;;;;;20.56;47.10;101520.30;1722926;82;21592;-47
2021/05/05 09:55:03;;;;;;;7.53;2.50;;;;;;;20.59;46.87;101514.83;1738596;82;21184;-47
2021/05/05 09:57:34;;;;;;;5.08;1.90;;;;;;;20.64;47.04;101517.25;1743864;82;21589;-48
2021/05/05 10:00:08;;;;;;;;;;;;;;;20.67;46.77;101515.29;1743263;82;21192;-49
2021/05/05 10:02:50;;;;;;;4.37;2.00;;;;;;;20.72;46.56;101515.92;1741157;82;20146;-49
2021/05/05 10:05:27;;;;;;;6.25;1.90;;;;;;;20.72;46.71;101510.63;1739619;82;21141;-48
2021/05/05 10:08:07;;;;;;;6.15;2.12;;;;;;;20.72;46.62;101507.98;1728144;82;21609;-49
2021/05/05 10:10:38;;;;;;;5.87;2.62;;;;;;;20.80;46.47;101511.09;1741625;82;21152;-46
2021/05/05 10:13:09;;;;;;;4.12;2.17;;;;;;;20.82;46.50;101507.03;1737273;82;21605;-46
2021/05/05 10:15:39;;;;;;;4.90;2.45;;;;;;;20.84;46.62;101503.84;1728078;82;21167;-52
2021/05/05 10:18:15;;;;;;;6.30;2.17;;;;;;;20.86;46.57;101501.97;1734515;82;21603;-45
2021/05/05 10:20:44;;;;;;;7.28;2.05;;;;;;;20.88;46.37;101500.95;1741158;82;21133;-45
2021/05/05 10:23:12;;;;;;;5.20;2.37;;;;;;;20.91;46.39;101499.48;1741424;82;21203;-50
2021/05/05 10:25:42;;;;;;;5.70;2.00;;;;;;;20.95;46.44;101497.06;1710716;82;21133;-45
2021/05/05 10:28:11;;;;;;;6.15;3.02;;;;;;;20.98;46.33;101496.89;1716827;82;21174;-46
2021/05/05 10:30:40;;;;;;;5.50;2.00;;;;;;;21.03;46.33;101494.91;1737197;82;21177;-49
2021/05/05 10:33:18;;;;;;;8.60;2.08;;;;;;;21.08;46.27;101499.95;1740508;82;21192;-49
2021/05/05 10:35:43;;;;;;;3.52;1.90;;;;;;;21.12;46.15;101504.14;1731832;82;21112;-51
2021/05/05 10:38:35;;;;;;;7.20;2.02;;;;;;;21.16;46.08;101507.02;1743263;81;21176;-45
2021/05/05 10:41:11;;;;;;;4.28;2.08;;;;;;;21.17;46.33;101501.23;1736129;82;21175;-48
2021/05/05 10:43:53;;;;;;;4.20;2.02;;;;;;;21.19;46.34;101502.86;1730010;81;21176;-51
2021/05/05 10:46:35;;;;;;;11.30;2.10;;;;;;;21.22;46.21;101500.06;1734716;82;21193;-45
2021/05/05 10:49:15;;;;;;;5.03;2.75;;;;;;;21.22;46.11;101494.77;1740720;81;21564;-46
2021/05/05 10:51:52;;;;;;;5.33;2.25;;;;;;;21.24;45.93;101498.66;1744060;81;21191;-46
2021/05/05 10:54:22;;;;;;;4.97;1.98;;;;;;;21.23;46.00;101491.63;1743387;81;21128;-49
2021/05/05 10:57:11;;;;;;;4.80;2.17;;;;;;;21.21;46.15;101478.95;1740578;81;21152;-46
2021/05/05 11:00:07;;;;;;;5.30;2.20;;;;;;;21.28;46.06;101472.40;1810661;79;22929;-47
2021/05/05 11:02:48;;;;;;;7.08;2.35;;;;;;;21.28;45.92;101484.31;1714283;83;21184;-49
2021/05/05 11:05:23;;;;;;;6.97;1.75;;;;;;;21.30;45.88;101478.46;1700150;83;21209;-46
2021/05/05 11:08:05;;;;;;;4.90;2.30;;;;;;;21.35;45.85;101472.46;1811111;79;23188;-47
2021/05/05 11:10:38;;;;;;;10.60;2.27;;;;;;;21.32;45.89;101471.29;1783993;80;21145;-52
2021/05/05 11:13:23;;;;;;;4.30;2.05;;;;;;;21.33;45.92;101470.37;1775972;80;21141;-49
2021/05/05 11:15:55;;;;;;;8.38;2.22;;;;;;;21.31;45.82;101470.92;1775504;80;21120;-50
2021/05/05 11:18:42;;;;;;;4.97;2.17;;;;;;;21.25;45.77;101461.96;1778760;80;21167;-50
2021/05/05 11:21:28;;;;;;;5.83;1.82;;;;;;;21.23;45.84;101464.70;1785280;80;21573;-47
2021/05/05 11:23:56;;;;;;;6.12;2.37;;;;;;;21.16;45.88;101458.52;1768162;80;21600;-46
2021/05/05 11:26:28;;;;;;;8.13;2.27;;;;;;;21.11;45.96;101464.51;1740341;81;21190;-49
2021/05/05 11:29:03;;;;;;;4.95;1.98;;;;;;;21.08;46.09;101469.03;1741363;81;21580;-47
2021/05/05 11:31:51;;;;;;;7.03;2.12;;;;;;;21.06;46.13;101468.26;1727644;82;21579;-46
2021/05/05 11:34:26;;;;;;;8.15;2.00;;;;;;;21.02;46.14;101472.01;1708402;82;21202;-50
2021/05/05 11:37:01;;;;;;;8.03;2.52;;;;;;;20.96;46.20;101461.72;1732726;82;21569;-46
2021/05/05 11:39:43;;;;;;;4.22;2.05;;;;;;;20.92;46.31;101461.96;1725946;82;21170;-48
2021/05/05 11:42:17;;;;;;;8.65;2.50;;;;;;;20.87;46.35;101456.94;1719735;82;21180;-46
2021/05/05 11:44:51;;;;;;;6.67;2.12;;;;;;;20.84;46.12;101459.73;1730386;82;21126;-46
2021/05/05 11:47:33;;;;;;;3.90;1.75;;;;;;;20.76;46.45;101459.28;1736593;82;21636;-48
2021/05/05 11:50:12;;;;;;;;;;;;;;;20.71;46.77;101455.19;1737612;82;21144;-48
2021/05/05 11:52:52;;;;;;;4.70;1.90;;;;;;;20.66;46.83;101453.23;1728561;82;20143;-49